sensor_id;sensor_type;location;lat;lon;timestamp;temperature;humidity
43151;DHT22;28755;51.478;5.702;2022-11-25T00:01:10;9.80;99.90
43151;DHT22;28755;51.478;5.702;2022-11-25T00:03:37;9.80;99.90
43151;DHT22;28755;51.478;5.702;2022-11-25T00:08:39;9.80;99.90
43151;DHT22;28755;51.478;5.702;2022-11-25T00:11:05;9.90;99.90
43151;DHT22;28755;51.478;5.702;2022-11-25T00:13:31;9.90;99.90
43151;DHT22;28755;51.478;5.702;2022-11-25T00:16:03;9.90;99.90
43151;DHT22;28755;51.478;5.702;2022-11-25T00:18:30;10.00;99.90
43151;DHT22;28755;51.478;5.702;2022-11-25T00:20:56;10.00;99.90
43151;DHT22;28755;51.478;5.702;2022-11-25T00:23:22;10.00;99.90
43151;DHT22;28755;51.478;5.702;2022-11-25T00:25:48;10.00;99.90
43151;DHT22;28755;51.478;5.702;2022-11-25T00:28:14;10.10;99.90
43151;DHT22;28755;51.478;5.702;2022-11-25T00:30:40;10.10;99.90
43151;DHT22;28755;51.478;5.702;2022-11-25T00:33:05;10.00;99.90
43151;DHT22;28755;51.478;5.702;2022-11-25T00:35:34;10.10;99.90
43151;DHT22;28755;51.478;5.702;2022-11-25T00:37:59;10.20;99.90
43151;DHT22;28755;51.478;5.702;2022-11-25T00:40:25;10.20;99.90
43151;DHT22;28755;51.478;5.702;2022-11-25T00:42:51;10.20;99.90
43151;DHT22;28755;51.478;5.702;2022-11-25T00:45:35;10.10;99.90
43151;DHT22;28755;51.478;5.702;2022-11-25T00:48:01;10.20;99.90
43151;DHT22;28755;51.478;5.702;2022-11-25T00:50:26;10.20;99.90
43151;DHT22;28755;51.478;5.702;2022-11-25T00:52:52;10.20;99.90
43151;DHT22;28755;51.478;5.702;2022-11-25T00:55:18;10.20;99.90
43151;DHT22;28755;51.478;5.702;2022-11-25T00:57:44;10.20;99.90
43151;DHT22;28755;51.478;5.702;2022-11-25T01:00:11;10.20;99.90
43151;DHT22;28755;51.478;5.702;2022-11-25T01:02:37;10.20;99.90
43151;DHT22;28755;51.478;5.702;2022-11-25T01:05:03;10.20;99.90
43151;DHT22;28755;51.478;5.702;2022-11-25T01:07:28;10.20;99.90
43151;DHT22;28755;51.478;5.702;2022-11-25T01:09:54;10.20;99.90
43151;DHT22;28755;51.478;5.702;2022-11-25T01:12:20;10.20;99.90
43151;DHT22;28755;51.478;5.702;2022-11-25T01:14:45;10.20;99.90
43151;DHT22;28755;51.478;5.702;2022-11-25T01:17:11;10.10;99.90
43151;DHT22;28755;51.478;5.702;2022-11-25T01:19:36;10.10;99.90
43151;DHT22;28755;51.478;5.702;2022-11-25T01:22:07;10.20;99.90
43151;DHT22;28755;51.478;5.702;2022-11-25T01:24:33;10.20;99.90
43151;DHT22;28755;51.478;5.702;2022-11-25T01:26:59;10.20;99.90
43151;DHT22;28755;51.478;5.702;2022-11-25T01:29:25;10.20;99.90
43151;DHT22;28755;51.478;5.702;2022-11-25T01:31:53;10.20;99.90
43151;DHT22;28755;51.478;5.702;2022-11-25T01:34:24;10.20;99.90
43151;DHT22;28755;51.478;5.702;2022-11-25T01:36:50;10.20;99.90
43151;DHT22;28755;51.478;5.702;2022-11-25T01:39:18;10.20;99.90
43151;DHT22;28755;51.478;5.702;2022-11-25T01:41:45;10.30;99.90
43151;DHT22;28755;51.478;5.702;2022-11-25T01:44:14;10.20;99.90
43151;DHT22;28755;51.478;5.702;2022-11-25T01:49:38;10.20;99.90
43151;DHT22;28755;51.478;5.702;2022-11-25T01:52:13;10.20;99.90
43151;DHT22;28755;51.478;5.702;2022-11-25T01:54:47;10.10;99.90
43151;DHT22;28755;51.478;5.702;2022-11-25T01:57:19;10.30;99.90
43151;DHT22;28755;51.478;5.702;2022-11-25T01:59:48;10.40;99.90
43151;DHT22;28755;51.478;5.702;2022-11-25T02:02:15;10.40;99.90
43151;DHT22;28755;51.478;5.702;2022-11-25T02:04:42;10.40;99.90
43151;DHT22;28755;51.478;5.702;2022-11-25T02:07:16;10.50;99.90
43151;DHT22;28755;51.478;5.702;2022-11-25T02:09:45;10.50;99.90
43151;DHT22;28755;51.478;5.702;2022-11-25T02:12:13;10.60;99.90
43151;DHT22;28755;51.478;5.702;2022-11-25T02:14:40;10.60;99.90
43151;DHT22;28755;51.478;5.702;2022-11-25T02:17:06;10.70;99.90
43151;DHT22;28755;51.478;5.702;2022-11-25T02:20:01;10.90;99.90
43151;DHT22;28755;51.478;5.702;2022-11-25T02:22:52;10.90;99.90
43151;DHT22;28755;51.478;5.702;2022-11-25T02:25:23;10.90;99.90
43151;DHT22;28755;51.478;5.702;2022-11-25T02:27:52;11.00;99.90
43151;DHT22;28755;51.478;5.702;2022-11-25T02:30:19;11.00;99.90
43151;DHT22;28755;51.478;5.702;2022-11-25T02:32:46;11.10;99.90
43151;DHT22;28755;51.478;5.702;2022-11-25T02:35:41;11.10;99.90
43151;DHT22;28755;51.478;5.702;2022-11-25T02:41:20;11.20;99.90
43151;DHT22;28755;51.478;5.702;2022-11-25T02:43:47;11.20;99.90
43151;DHT22;28755;51.478;5.702;2022-11-25T02:46:18;11.20;99.90
43151;DHT22;28755;51.478;5.702;2022-11-25T02:48:44;11.20;99.90
43151;DHT22;28755;51.478;5.702;2022-11-25T02:51:13;11.20;99.90
43151;DHT22;28755;51.478;5.702;2022-11-25T02:53:39;11.20;99.90
43151;DHT22;28755;51.478;5.702;2022-11-25T02:56:05;11.20;99.90
43151;DHT22;28755;51.478;5.702;2022-11-25T02:58:31;11.10;99.90
43151;DHT22;28755;51.478;5.702;2022-11-25T03:00:57;11.00;99.90
43151;DHT22;28755;51.478;5.702;2022-11-25T03:03:23;11.00;99.90
43151;DHT22;28755;51.478;5.702;2022-11-25T03:05:48;11.00;99.90
43151;DHT22;28755;51.478;5.702;2022-11-25T03:08:14;10.90;99.90
43151;DHT22;28755;51.478;5.702;2022-11-25T03:10:40;10.90;99.90
43151;DHT22;28755;51.478;5.702;2022-11-25T03:13:07;10.80;99.90
43151;DHT22;28755;51.478;5.702;2022-11-25T03:15:33;10.70;99.90
43151;DHT22;28755;51.478;5.702;2022-11-25T03:18:00;10.70;99.90
43151;DHT22;28755;51.478;5.702;2022-11-25T03:20:26;10.60;99.90
43151;DHT22;28755;51.478;5.702;2022-11-25T03:22:51;10.50;99.90
43151;DHT22;28755;51.478;5.702;2022-11-25T03:25:17;10.50;99.90
43151;DHT22;28755;51.478;5.702;2022-11-25T03:27:44;10.50;99.90
43151;DHT22;28755;51.478;5.702;2022-11-25T03:30:13;10.50;99.90
43151;DHT22;28755;51.478;5.702;2022-11-25T03:32:39;10.40;99.90
43151;DHT22;28755;51.478;5.702;2022-11-25T03:35:05;10.30;99.90
43151;DHT22;28755;51.478;5.702;2022-11-25T03:37:31;10.20;99.90
43151;DHT22;28755;51.478;5.702;2022-11-25T03:39:57;10.20;99.90
43151;DHT22;28755;51.478;5.702;2022-11-25T03:42:23;10.10;99.90
43151;DHT22;28755;51.478;5.702;2022-11-25T03:44:49;10.10;99.90
43151;DHT22;28755;51.478;5.702;2022-11-25T03:47:15;10.10;99.90
43151;DHT22;28755;51.478;5.702;2022-11-25T03:49:40;10.10;99.90
43151;DHT22;28755;51.478;5.702;2022-11-25T03:52:06;9.90;99.90
43151;DHT22;28755;51.478;5.702;2022-11-25T03:54:32;9.90;99.90
43151;DHT22;28755;51.478;5.702;2022-11-25T03:56:58;9.90;99.90
43151;DHT22;28755;51.478;5.702;2022-11-25T03:59:24;9.80;99.90
43151;DHT22;28755;51.478;5.702;2022-11-25T04:01:49;9.80;99.90
43151;DHT22;28755;51.478;5.702;2022-11-25T04:04:15;9.80;99.90
43151;DHT22;28755;51.478;5.702;2022-11-25T04:06:41;9.80;99.90
43151;DHT22;28755;51.478;5.702;2022-11-25T04:09:07;9.80;99.90
43151;DHT22;28755;51.478;5.702;2022-11-25T04:11:33;9.70;99.90
43151;DHT22;28755;51.478;5.702;2022-11-25T04:14:18;9.70;99.90
43151;DHT22;28755;51.478;5.702;2022-11-25T04:16:44;9.70;99.90
43151;DHT22;28755;51.478;5.702;2022-11-25T04:19:09;9.70;99.90
43151;DHT22;28755;51.478;5.702;2022-11-25T04:21:35;9.70;99.90
43151;DHT22;28755;51.478;5.702;2022-11-25T04:24:01;9.60;99.90
43151;DHT22;28755;51.478;5.702;2022-11-25T04:26:27;9.60;99.90
43151;DHT22;28755;51.478;5.702;2022-11-25T04:28:53;9.50;99.90
43151;DHT22;28755;51.478;5.702;2022-11-25T04:31:19;9.50;99.90
43151;DHT22;28755;51.478;5.702;2022-11-25T04:33:44;9.40;99.90
43151;DHT22;28755;51.478;5.702;2022-11-25T04:36:10;9.40;99.90
43151;DHT22;28755;51.478;5.702;2022-11-25T04:38:36;9.40;99.90
43151;DHT22;28755;51.478;5.702;2022-11-25T04:41:01;9.40;99.90
43151;DHT22;28755;51.478;5.702;2022-11-25T04:43:27;9.40;99.90
43151;DHT22;28755;51.478;5.702;2022-11-25T04:45:53;9.40;99.90
43151;DHT22;28755;51.478;5.702;2022-11-25T04:48:19;9.40;99.90
43151;DHT22;28755;51.478;5.702;2022-11-25T04:50:45;9.40;99.90
43151;DHT22;28755;51.478;5.702;2022-11-25T04:53:11;9.40;99.90
43151;DHT22;28755;51.478;5.702;2022-11-25T04:55:36;9.40;99.90
43151;DHT22;28755;51.478;5.702;2022-11-25T04:58:02;9.40;99.90
43151;DHT22;28755;51.478;5.702;2022-11-25T05:00:28;9.40;99.90
43151;DHT22;28755;51.478;5.702;2022-11-25T05:02:54;9.40;99.90
43151;DHT22;28755;51.478;5.702;2022-11-25T05:05:20;9.40;99.90
43151;DHT22;28755;51.478;5.702;2022-11-25T05:07:45;9.40;99.90
43151;DHT22;28755;51.478;5.702;2022-11-25T05:10:11;9.50;99.90
43151;DHT22;28755;51.478;5.702;2022-11-25T05:12:37;9.50;99.90
43151;DHT22;28755;51.478;5.702;2022-11-25T05:15:04;9.40;99.90
43151;DHT22;28755;51.478;5.702;2022-11-25T05:17:31;9.40;99.90
43151;DHT22;28755;51.478;5.702;2022-11-25T05:19:56;9.40;99.90
43151;DHT22;28755;51.478;5.702;2022-11-25T05:22:27;9.30;99.90
43151;DHT22;28755;51.478;5.702;2022-11-25T05:24:53;9.20;99.90
43151;DHT22;28755;51.478;5.702;2022-11-25T05:27:20;9.20;99.90
43151;DHT22;28755;51.478;5.702;2022-11-25T05:29:46;9.20;99.90
43151;DHT22;28755;51.478;5.702;2022-11-25T05:32:13;9.20;99.90
43151;DHT22;28755;51.478;5.702;2022-11-25T05:34:39;9.20;99.90
43151;DHT22;28755;51.478;5.702;2022-11-25T05:37:06;9.10;99.90
43151;DHT22;28755;51.478;5.702;2022-11-25T05:39:32;9.10;99.90
43151;DHT22;28755;51.478;5.702;2022-11-25T05:41:58;9.10;99.90
43151;DHT22;28755;51.478;5.702;2022-11-25T05:44:24;9.10;99.90
43151;DHT22;28755;51.478;5.702;2022-11-25T05:46:49;9.00;99.90
43151;DHT22;28755;51.478;5.702;2022-11-25T05:49:16;9.00;99.90
43151;DHT22;28755;51.478;5.702;2022-11-25T05:51:42;8.90;99.90
43151;DHT22;28755;51.478;5.702;2022-11-25T05:54:08;8.90;99.90
43151;DHT22;28755;51.478;5.702;2022-11-25T05:56:34;9.00;99.90
43151;DHT22;28755;51.478;5.702;2022-11-25T05:59:00;8.90;99.90
43151;DHT22;28755;51.478;5.702;2022-11-25T06:01:26;8.90;99.90
43151;DHT22;28755;51.478;5.702;2022-11-25T06:03:52;8.90;99.90
43151;DHT22;28755;51.478;5.702;2022-11-25T06:06:18;8.90;99.90
43151;DHT22;28755;51.478;5.702;2022-11-25T06:08:44;8.80;99.90
43151;DHT22;28755;51.478;5.702;2022-11-25T06:11:14;8.80;99.90
43151;DHT22;28755;51.478;5.702;2022-11-25T06:13:41;8.90;99.90
43151;DHT22;28755;51.478;5.702;2022-11-25T06:16:15;8.80;99.90
43151;DHT22;28755;51.478;5.702;2022-11-25T06:18:40;8.90;99.90
43151;DHT22;28755;51.478;5.702;2022-11-25T06:21:07;8.80;99.90
43151;DHT22;28755;51.478;5.702;2022-11-25T06:23:34;8.80;99.90
43151;DHT22;28755;51.478;5.702;2022-11-25T06:26:09;8.80;99.90
43151;DHT22;28755;51.478;5.702;2022-11-25T06:28:35;8.70;99.90
43151;DHT22;28755;51.478;5.702;2022-11-25T06:31:12;8.70;99.90
43151;DHT22;28755;51.478;5.702;2022-11-25T06:33:38;8.70;99.90
43151;DHT22;28755;51.478;5.702;2022-11-25T06:36:05;8.70;99.90
43151;DHT22;28755;51.478;5.702;2022-11-25T06:38:32;8.70;99.90
43151;DHT22;28755;51.478;5.702;2022-11-25T06:40:59;8.60;99.90
43151;DHT22;28755;51.478;5.702;2022-11-25T06:43:25;8.60;99.90
43151;DHT22;28755;51.478;5.702;2022-11-25T06:45:51;8.60;99.90
43151;DHT22;28755;51.478;5.702;2022-11-25T06:48:16;8.50;99.90
43151;DHT22;28755;51.478;5.702;2022-11-25T06:50:42;8.60;99.90
43151;DHT22;28755;51.478;5.702;2022-11-25T06:53:07;8.60;99.90
43151;DHT22;28755;51.478;5.702;2022-11-25T06:55:33;8.60;99.90
43151;DHT22;28755;51.478;5.702;2022-11-25T06:57:58;8.50;99.90
43151;DHT22;28755;51.478;5.702;2022-11-25T07:00:24;8.60;99.90
43151;DHT22;28755;51.478;5.702;2022-11-25T07:02:50;8.50;99.90
43151;DHT22;28755;51.478;5.702;2022-11-25T07:05:15;8.50;99.90
43151;DHT22;28755;51.478;5.702;2022-11-25T07:07:41;8.50;99.90
43151;DHT22;28755;51.478;5.702;2022-11-25T07:10:07;8.50;99.90
43151;DHT22;28755;51.478;5.702;2022-11-25T07:12:33;8.40;99.90
43151;DHT22;28755;51.478;5.702;2022-11-25T07:14:59;8.50;99.90
43151;DHT22;28755;51.478;5.702;2022-11-25T07:17:24;8.40;99.90
43151;DHT22;28755;51.478;5.702;2022-11-25T07:19:50;8.40;99.90
43151;DHT22;28755;51.478;5.702;2022-11-25T07:22:15;8.40;99.90
43151;DHT22;28755;51.478;5.702;2022-11-25T07:24:41;8.40;99.90
43151;DHT22;28755;51.478;5.702;2022-11-25T07:27:07;8.40;99.90
43151;DHT22;28755;51.478;5.702;2022-11-25T07:29:33;8.30;99.90
43151;DHT22;28755;51.478;5.702;2022-11-25T07:32:00;8.20;99.90
43151;DHT22;28755;51.478;5.702;2022-11-25T07:34:26;8.40;99.90
43151;DHT22;28755;51.478;5.702;2022-11-25T07:36:51;8.40;99.90
43151;DHT22;28755;51.478;5.702;2022-11-25T07:39:20;8.40;99.90
43151;DHT22;28755;51.478;5.702;2022-11-25T07:41:50;8.40;99.90
43151;DHT22;28755;51.478;5.702;2022-11-25T07:44:16;8.50;99.90
43151;DHT22;28755;51.478;5.702;2022-11-25T07:46:44;8.60;99.90
43151;DHT22;28755;51.478;5.702;2022-11-25T07:49:14;8.60;99.90
43151;DHT22;28755;51.478;5.702;2022-11-25T07:51:41;8.80;99.90
43151;DHT22;28755;51.478;5.702;2022-11-25T07:54:10;9.30;99.90
43151;DHT22;28755;51.478;5.702;2022-11-25T07:56:38;9.50;99.90
43151;DHT22;28755;51.478;5.702;2022-11-25T07:59:05;9.30;99.90
43151;DHT22;28755;51.478;5.702;2022-11-25T08:01:31;9.00;99.90
43151;DHT22;28755;51.478;5.702;2022-11-25T08:03:57;8.90;99.90
43151;DHT22;28755;51.478;5.702;2022-11-25T08:06:26;8.80;99.90
43151;DHT22;28755;51.478;5.702;2022-11-25T08:08:53;8.90;99.90
43151;DHT22;28755;51.478;5.702;2022-11-25T08:11:24;9.00;99.90
43151;DHT22;28755;51.478;5.702;2022-11-25T08:13:50;9.10;99.90
43151;DHT22;28755;51.478;5.702;2022-11-25T08:16:18;9.30;99.90
43151;DHT22;28755;51.478;5.702;2022-11-25T08:18:44;9.40;99.90
43151;DHT22;28755;51.478;5.702;2022-11-25T08:21:12;9.70;99.90
43151;DHT22;28755;51.478;5.702;2022-11-25T08:23:39;9.80;99.90
43151;DHT22;28755;51.478;5.702;2022-11-25T08:26:07;10.20;99.90
43151;DHT22;28755;51.478;5.702;2022-11-25T08:28:34;10.50;99.90
43151;DHT22;28755;51.478;5.702;2022-11-25T08:31:05;10.50;99.90
43151;DHT22;28755;51.478;5.702;2022-11-25T08:33:31;10.70;99.90
43151;DHT22;28755;51.478;5.702;2022-11-25T08:35:57;11.00;99.90
43151;DHT22;28755;51.478;5.702;2022-11-25T08:38:23;11.00;99.90
43151;DHT22;28755;51.478;5.702;2022-11-25T08:40:49;11.10;99.90
43151;DHT22;28755;51.478;5.702;2022-11-25T08:43:15;11.40;99.90
43151;DHT22;28755;51.478;5.702;2022-11-25T08:45:40;11.90;99.90
43151;DHT22;28755;51.478;5.702;2022-11-25T08:48:06;12.60;99.90
43151;DHT22;28755;51.478;5.702;2022-11-25T08:50:32;13.10;99.90
43151;DHT22;28755;51.478;5.702;2022-11-25T08:52:58;13.50;99.90
43151;DHT22;28755;51.478;5.702;2022-11-25T08:55:25;13.90;99.90
43151;DHT22;28755;51.478;5.702;2022-11-25T08:57:55;14.30;99.90
43151;DHT22;28755;51.478;5.702;2022-11-25T09:00:21;14.60;99.90
43151;DHT22;28755;51.478;5.702;2022-11-25T09:02:47;14.60;99.90
43151;DHT22;28755;51.478;5.702;2022-11-25T09:05:15;15.10;99.90
43151;DHT22;28755;51.478;5.702;2022-11-25T09:07:41;15.30;99.90
43151;DHT22;28755;51.478;5.702;2022-11-25T09:10:09;15.70;99.90
43151;DHT22;28755;51.478;5.702;2022-11-25T09:12:38;16.20;99.90
43151;DHT22;28755;51.478;5.702;2022-11-25T09:15:04;17.00;99.90
43151;DHT22;28755;51.478;5.702;2022-11-25T09:17:30;16.40;99.90
43151;DHT22;28755;51.478;5.702;2022-11-25T09:19:56;16.20;99.90
43151;DHT22;28755;51.478;5.702;2022-11-25T09:22:21;16.10;99.90
43151;DHT22;28755;51.478;5.702;2022-11-25T09:24:47;16.90;99.90
43151;DHT22;28755;51.478;5.702;2022-11-25T09:27:13;16.90;99.90
43151;DHT22;28755;51.478;5.702;2022-11-25T09:29:38;16.40;99.90
43151;DHT22;28755;51.478;5.702;2022-11-25T09:32:05;17.30;99.90
43151;DHT22;28755;51.478;5.702;2022-11-25T09:34:30;17.00;99.90
43151;DHT22;28755;51.478;5.702;2022-11-25T09:36:56;17.40;99.90
43151;DHT22;28755;51.478;5.702;2022-11-25T09:39:21;17.00;99.90
43151;DHT22;28755;51.478;5.702;2022-11-25T09:45:21;16.60;99.90
43151;DHT22;28755;51.478;5.702;2022-11-25T09:51:08;17.60;99.90
43151;DHT22;28755;51.478;5.702;2022-11-25T09:53:43;17.80;99.90
43151;DHT22;28755;51.478;5.702;2022-11-25T09:56:19;18.90;99.90
43151;DHT22;28755;51.478;5.702;2022-11-25T09:58:51;19.50;99.90
43151;DHT22;28755;51.478;5.702;2022-11-25T10:01:21;19.60;99.90
43151;DHT22;28755;51.478;5.702;2022-11-25T10:03:54;19.30;99.90
43151;DHT22;28755;51.478;5.702;2022-11-25T10:06:24;20.00;99.90
43151;DHT22;28755;51.478;5.702;2022-11-25T10:09:03;19.90;99.90
43151;DHT22;28755;51.478;5.702;2022-11-25T10:14:14;19.40;99.90
43151;DHT22;28755;51.478;5.702;2022-11-25T10:22:36;20.60;99.90
43151;DHT22;28755;51.478;5.702;2022-11-25T10:25:29;19.40;99.90
43151;DHT22;28755;51.478;5.702;2022-11-25T10:28:01;19.20;99.90
43151;DHT22;28755;51.478;5.702;2022-11-25T10:30:38;20.00;99.90
43151;DHT22;28755;51.478;5.702;2022-11-25T10:33:23;20.20;99.90
43151;DHT22;28755;51.478;5.702;2022-11-25T10:36:06;20.60;99.90
43151;DHT22;28755;51.478;5.702;2022-11-25T10:38:38;21.60;99.90
43151;DHT22;28755;51.478;5.702;2022-11-25T10:41:06;23.50;99.90
43151;DHT22;28755;51.478;5.702;2022-11-25T10:43:32;22.90;99.90
43151;DHT22;28755;51.478;5.702;2022-11-25T10:51:30;22.60;99.90
43151;DHT22;28755;51.478;5.702;2022-11-25T10:54:20;22.60;99.90
43151;DHT22;28755;51.478;5.702;2022-11-25T10:56:53;22.40;99.90
43151;DHT22;28755;51.478;5.702;2022-11-25T10:59:30;23.20;99.90
43151;DHT22;28755;51.478;5.702;2022-11-25T11:05:00;22.50;99.90
43151;DHT22;28755;51.478;5.702;2022-11-25T11:07:30;21.90;99.90
43151;DHT22;28755;51.478;5.702;2022-11-25T11:15:32;20.10;99.90
43151;DHT22;28755;51.478;5.702;2022-11-25T11:20:56;21.80;99.90
43151;DHT22;28755;51.478;5.702;2022-11-25T11:23:22;21.20;99.90
43151;DHT22;28755;51.478;5.702;2022-11-25T11:31:05;22.80;99.90
43151;DHT22;28755;51.478;5.702;2022-11-25T11:33:57;23.10;99.90
43151;DHT22;28755;51.478;5.702;2022-11-25T11:36:42;22.80;99.90
43151;DHT22;28755;51.478;5.702;2022-11-25T11:42:21;23.00;99.90
43151;DHT22;28755;51.478;5.702;2022-11-25T11:47:57;24.90;99.30
43151;DHT22;28755;51.478;5.702;2022-11-25T11:53:10;24.60;98.00
43151;DHT22;28755;51.478;5.702;2022-11-25T11:55:55;23.80;97.90
43151;DHT22;28755;51.478;5.702;2022-11-25T12:01:24;24.30;96.50
43151;DHT22;28755;51.478;5.702;2022-11-25T12:04:18;24.50;96.10
43151;DHT22;28755;51.478;5.702;2022-11-25T12:09:23;24.40;96.40
43151;DHT22;28755;51.478;5.702;2022-11-25T12:11:54;24.70;96.10
43151;DHT22;28755;51.478;5.702;2022-11-25T12:14:31;24.70;95.50
43151;DHT22;28755;51.478;5.702;2022-11-25T12:17:02;23.40;96.40
43151;DHT22;28755;51.478;5.702;2022-11-25T12:19:43;23.00;97.10
43151;DHT22;28755;51.478;5.702;2022-11-25T12:22:25;22.50;97.10
43151;DHT22;28755;51.478;5.702;2022-11-25T12:25:06;21.90;97.90
43151;DHT22;28755;51.478;5.702;2022-11-25T12:27:45;21.20;98.40
43151;DHT22;28755;51.478;5.702;2022-11-25T12:30:14;20.90;99.50
43151;DHT22;28755;51.478;5.702;2022-11-25T12:36:02;20.90;99.70
43151;DHT22;28755;51.478;5.702;2022-11-25T12:38:41;21.30;99.80
43151;DHT22;28755;51.478;5.702;2022-11-25T12:41:22;20.80;99.90
43151;DHT22;28755;51.478;5.702;2022-11-25T12:43:54;20.00;99.90
43151;DHT22;28755;51.478;5.702;2022-11-25T12:48:56;20.50;99.90
43151;DHT22;28755;51.478;5.702;2022-11-25T12:56:46;22.80;98.70
43151;DHT22;28755;51.478;5.702;2022-11-25T13:02:23;20.00;99.90
43151;DHT22;28755;51.478;5.702;2022-11-25T13:13:30;16.40;99.90
43151;DHT22;28755;51.478;5.702;2022-11-25T13:15:58;15.70;99.90
43151;DHT22;28755;51.478;5.702;2022-11-25T13:18:28;15.50;99.90
43151;DHT22;28755;51.478;5.702;2022-11-25T13:20:56;15.40;99.90
43151;DHT22;28755;51.478;5.702;2022-11-25T13:23:40;15.00;99.90
43151;DHT22;28755;51.478;5.702;2022-11-25T13:28:58;14.60;99.90
43151;DHT22;28755;51.478;5.702;2022-11-25T13:31:30;14.60;99.90
43151;DHT22;28755;51.478;5.702;2022-11-25T13:34:26;14.50;99.90
43151;DHT22;28755;51.478;5.702;2022-11-25T13:36:54;14.30;99.90
43151;DHT22;28755;51.478;5.702;2022-11-25T13:39:32;14.20;99.90
43151;DHT22;28755;51.478;5.702;2022-11-25T13:45:23;14.50;99.90
43151;DHT22;28755;51.478;5.702;2022-11-25T13:47:51;14.40;99.90
43151;DHT22;28755;51.478;5.702;2022-11-25T13:50:22;14.30;99.90
43151;DHT22;28755;51.478;5.702;2022-11-25T13:52:58;14.40;99.90
43151;DHT22;28755;51.478;5.702;2022-11-25T13:58:12;14.40;99.90
43151;DHT22;28755;51.478;5.702;2022-11-25T14:00:59;14.40;99.90
43151;DHT22;28755;51.478;5.702;2022-11-25T14:16:49;13.90;99.90
43151;DHT22;28755;51.478;5.702;2022-11-25T14:19:45;14.00;99.90
43151;DHT22;28755;51.478;5.702;2022-11-25T14:25:02;13.80;99.90
43151;DHT22;28755;51.478;5.702;2022-11-25T14:27:33;13.70;99.90
43151;DHT22;28755;51.478;5.702;2022-11-25T14:30:04;13.80;99.90
43151;DHT22;28755;51.478;5.702;2022-11-25T14:32:35;13.90;99.90
43151;DHT22;28755;51.478;5.702;2022-11-25T14:35:15;13.80;99.90
43151;DHT22;28755;51.478;5.702;2022-11-25T14:37:59;13.80;99.90
43151;DHT22;28755;51.478;5.702;2022-11-25T14:40:39;13.80;99.90
43151;DHT22;28755;51.478;5.702;2022-11-25T14:43:25;13.70;99.90
43151;DHT22;28755;51.478;5.702;2022-11-25T14:46:24;13.60;99.90
43151;DHT22;28755;51.478;5.702;2022-11-25T14:48:58;13.50;99.90
43151;DHT22;28755;51.478;5.702;2022-11-25T14:51:25;13.40;99.90
43151;DHT22;28755;51.478;5.702;2022-11-25T14:53:51;13.50;99.90
43151;DHT22;28755;51.478;5.702;2022-11-25T14:56:29;13.40;99.90
43151;DHT22;28755;51.478;5.702;2022-11-25T14:58:56;13.20;99.90
43151;DHT22;28755;51.478;5.702;2022-11-25T15:01:27;13.20;99.90
43151;DHT22;28755;51.478;5.702;2022-11-25T15:06:34;13.30;99.90
43151;DHT22;28755;51.478;5.702;2022-11-25T15:09:01;13.30;99.90
43151;DHT22;28755;51.478;5.702;2022-11-25T15:11:30;13.30;99.90
43151;DHT22;28755;51.478;5.702;2022-11-25T15:14:05;13.30;99.90
43151;DHT22;28755;51.478;5.702;2022-11-25T15:16:36;13.10;99.90
43151;DHT22;28755;51.478;5.702;2022-11-25T15:19:15;13.10;99.90
43151;DHT22;28755;51.478;5.702;2022-11-25T15:21:42;13.10;99.90
43151;DHT22;28755;51.478;5.702;2022-11-25T15:24:22;13.00;99.90
43151;DHT22;28755;51.478;5.702;2022-11-25T15:26:56;13.00;99.90
43151;DHT22;28755;51.478;5.702;2022-11-25T15:29:23;13.00;99.90
43151;DHT22;28755;51.478;5.702;2022-11-25T15:31:50;13.10;99.90
43151;DHT22;28755;51.478;5.702;2022-11-25T15:34:19;13.10;99.90
43151;DHT22;28755;51.478;5.702;2022-11-25T15:36:45;13.10;99.90
43151;DHT22;28755;51.478;5.702;2022-11-25T15:41:51;13.00;99.90
43151;DHT22;28755;51.478;5.702;2022-11-25T15:44:22;13.00;99.90
43151;DHT22;28755;51.478;5.702;2022-11-25T15:49:19;12.90;99.90
43151;DHT22;28755;51.478;5.702;2022-11-25T15:52:10;12.90;99.90
43151;DHT22;28755;51.478;5.702;2022-11-25T15:54:44;12.80;99.90
43151;DHT22;28755;51.478;5.702;2022-11-25T15:57:29;12.70;99.90
43151;DHT22;28755;51.478;5.702;2022-11-25T16:05:14;12.60;99.90
43151;DHT22;28755;51.478;5.702;2022-11-25T16:10:44;12.60;99.90
43151;DHT22;28755;51.478;5.702;2022-11-25T16:16:19;12.60;99.90
43151;DHT22;28755;51.478;5.702;2022-11-25T16:26:37;12.50;99.90
43151;DHT22;28755;51.478;5.702;2022-11-25T16:29:25;12.40;99.90
43151;DHT22;28755;51.478;5.702;2022-11-25T16:31:51;12.40;99.90
43151;DHT22;28755;51.478;5.702;2022-11-25T16:34:19;12.20;99.90
43151;DHT22;28755;51.478;5.702;2022-11-25T16:36:45;12.20;99.90
43151;DHT22;28755;51.478;5.702;2022-11-25T16:39:12;12.10;99.90
43151;DHT22;28755;51.478;5.702;2022-11-25T16:41:38;12.10;99.90
43151;DHT22;28755;51.478;5.702;2022-11-25T16:44:15;12.00;99.90
43151;DHT22;28755;51.478;5.702;2022-11-25T16:46:42;11.90;99.90
43151;DHT22;28755;51.478;5.702;2022-11-25T16:49:13;11.70;99.90
43151;DHT22;28755;51.478;5.702;2022-11-25T16:51:38;11.80;99.90
43151;DHT22;28755;51.478;5.702;2022-11-25T16:54:04;11.70;99.90
43151;DHT22;28755;51.478;5.702;2022-11-25T16:56:30;11.70;99.90
43151;DHT22;28755;51.478;5.702;2022-11-25T16:58:58;11.60;99.90
43151;DHT22;28755;51.478;5.702;2022-11-25T17:01:26;11.40;99.90
43151;DHT22;28755;51.478;5.702;2022-11-25T17:03:53;11.40;99.90
43151;DHT22;28755;51.478;5.702;2022-11-25T17:06:21;11.40;99.90
43151;DHT22;28755;51.478;5.702;2022-11-25T17:08:47;11.30;99.90
43151;DHT22;28755;51.478;5.702;2022-11-25T17:11:16;11.30;99.90
43151;DHT22;28755;51.478;5.702;2022-11-25T17:13:44;11.30;99.90
43151;DHT22;28755;51.478;5.702;2022-11-25T17:16:15;11.30;99.90
43151;DHT22;28755;51.478;5.702;2022-11-25T17:18:42;11.30;99.90
43151;DHT22;28755;51.478;5.702;2022-11-25T17:21:12;11.30;99.90
43151;DHT22;28755;51.478;5.702;2022-11-25T17:23:38;11.10;99.90
43151;DHT22;28755;51.478;5.702;2022-11-25T17:26:04;11.10;99.90
43151;DHT22;28755;51.478;5.702;2022-11-25T17:28:30;11.20;99.90
43151;DHT22;28755;51.478;5.702;2022-11-25T17:30:55;11.20;99.90
43151;DHT22;28755;51.478;5.702;2022-11-25T17:33:21;11.10;99.90
43151;DHT22;28755;51.478;5.702;2022-11-25T17:35:47;11.10;99.90
43151;DHT22;28755;51.478;5.702;2022-11-25T17:38:15;11.10;99.90
43151;DHT22;28755;51.478;5.702;2022-11-25T17:40:42;11.10;99.90
43151;DHT22;28755;51.478;5.702;2022-11-25T17:43:14;11.10;99.90
43151;DHT22;28755;51.478;5.702;2022-11-25T17:45:41;11.10;99.90
43151;DHT22;28755;51.478;5.702;2022-11-25T17:48:14;11.10;99.90
43151;DHT22;28755;51.478;5.702;2022-11-25T17:50:40;11.00;99.90
43151;DHT22;28755;51.478;5.702;2022-11-25T17:53:07;11.00;99.90
43151;DHT22;28755;51.478;5.702;2022-11-25T17:55:35;11.00;99.90
43151;DHT22;28755;51.478;5.702;2022-11-25T17:58:02;11.00;99.90
43151;DHT22;28755;51.478;5.702;2022-11-25T18:00:28;10.90;99.90
43151;DHT22;28755;51.478;5.702;2022-11-25T18:02:53;10.90;99.90